createdAt,value
2018-08-22T00:00:23.438Z,4.70
2018-08-22T00:02:52.578Z,5.07
2018-08-22T00:05:21.710Z,4.23
2018-08-22T00:07:50.986Z,4.40
2018-08-22T00:10:20.106Z,4.00
2018-08-22T00:12:49.247Z,4.30
2018-08-22T00:15:18.485Z,4.60
2018-08-22T00:17:47.506Z,4.37
2018-08-22T00:20:16.735Z,4.70
2018-08-22T00:22:45.966Z,4.40
2018-08-22T00:25:15.163Z,5.03
2018-08-22T00:27:44.256Z,4.17
2018-08-22T00:30:13.377Z,4.05
2018-08-22T00:32:42.522Z,4.55
2018-08-22T00:35:11.653Z,4.67
2018-08-22T00:37:40.814Z,4.85
2018-08-22T00:40:09.937Z,4.07
2018-08-22T00:42:39.083Z,4.23
2018-08-22T00:45:08.341Z,5.20
2018-08-22T00:47:37.471Z,3.90
2018-08-22T00:50:06.615Z,4.30
2018-08-22T00:52:35.750Z,4.53
2018-08-22T00:55:04.888Z,4.67
2018-08-22T00:57:34.018Z,4.37
2018-08-22T01:00:03.154Z,4.80
2018-08-22T01:02:32.282Z,5.17
2018-08-22T01:05:01.428Z,5.67
2018-08-22T01:07:30.553Z,5.13
2018-08-22T01:10:00.303Z,5.20
2018-08-22T01:12:31.498Z,5.53
2018-08-22T01:15:00.810Z,5.22
2018-08-22T01:17:30.814Z,5.33
2018-08-22T01:20:00.991Z,5.20
2018-08-22T01:22:30.286Z,5.50
2018-08-22T01:24:59.426Z,5.90
2018-08-22T01:27:28.566Z,4.77
2018-08-22T01:29:57.713Z,5.10
2018-08-22T01:32:26.841Z,5.00
2018-08-22T01:34:55.985Z,5.27
2018-08-22T01:37:25.110Z,5.27
2018-08-22T01:39:54.258Z,5.17
2018-08-22T01:42:23.389Z,5.07
2018-08-22T01:44:52.529Z,5.30
2018-08-22T01:47:21.666Z,4.90
2018-08-22T01:49:50.802Z,4.97
2018-08-22T01:52:19.937Z,5.70
2018-08-22T01:54:49.125Z,5.05
2018-08-22T01:57:18.249Z,5.57
2018-08-22T01:59:47.397Z,5.22
2018-08-22T02:02:16.521Z,5.73
2018-08-22T02:04:45.658Z,5.07
2018-08-22T02:07:14.805Z,5.60
2018-08-22T02:09:43.942Z,5.60
2018-08-22T02:12:13.074Z,4.93
2018-08-22T02:14:42.216Z,5.77
2018-08-22T02:17:11.350Z,5.77
2018-08-22T02:19:40.478Z,4.87
2018-08-22T02:22:09.602Z,5.17
2018-08-22T02:24:38.737Z,4.53
2018-08-22T02:27:07.872Z,5.37
2018-08-22T02:29:37.005Z,5.13
2018-08-22T02:32:06.807Z,5.23
2018-08-22T02:34:35.951Z,4.70
2018-08-22T02:37:05.190Z,5.70
2018-08-22T02:39:34.329Z,5.33
2018-08-22T02:42:04.907Z,5.14
2018-08-22T02:44:34.078Z,5.60
2018-08-22T02:47:03.998Z,4.80
2018-08-22T02:49:34.039Z,5.30
2018-08-22T02:52:05.025Z,5.08
2018-08-22T02:54:34.264Z,5.33
2018-08-22T02:57:04.369Z,5.17
2018-08-22T02:59:33.513Z,4.87
2018-08-22T03:02:02.647Z,5.10
2018-08-22T03:04:31.781Z,5.63
2018-08-22T03:07:00.902Z,5.27
2018-08-22T03:09:30.051Z,5.20
2018-08-22T03:11:59.173Z,5.13
2018-08-22T03:14:28.321Z,6.33
2018-08-22T03:16:57.463Z,4.87
2018-08-22T03:19:26.612Z,5.47
2018-08-22T03:21:55.768Z,5.87
2018-08-22T03:24:24.905Z,5.23
2018-08-22T03:26:54.118Z,5.63
2018-08-22T03:29:23.257Z,6.00
2018-08-22T03:31:52.408Z,5.27
2018-08-22T03:34:21.542Z,5.90
2018-08-22T03:36:50.702Z,5.40
2018-08-22T03:39:22.843Z,6.33
2018-08-22T03:41:52.051Z,6.17
2018-08-22T03:44:21.194Z,5.47
2018-08-22T03:46:50.336Z,5.92
2018-08-22T03:49:19.475Z,5.50
2018-08-22T03:51:48.609Z,5.83
2018-08-22T03:54:17.742Z,6.20
2018-08-22T03:56:46.894Z,6.13
2018-08-22T03:59:16.031Z,5.87
2018-08-22T04:01:45.169Z,5.53
2018-08-22T04:04:14.300Z,5.43
2018-08-22T04:06:43.434Z,6.20
2018-08-22T04:09:12.565Z,5.83
2018-08-22T04:11:41.746Z,5.58
2018-08-22T04:14:10.874Z,5.20
2018-08-22T04:16:40.027Z,5.47
2018-08-22T04:19:09.155Z,5.37
2018-08-22T04:21:38.990Z,5.43
2018-08-22T04:24:08.126Z,5.73
2018-08-22T04:26:37.881Z,5.25
2018-08-22T04:29:07.974Z,5.10
2018-08-22T04:31:38.000Z,5.90
2018-08-22T04:34:08.219Z,5.90
2018-08-22T04:36:38.351Z,5.35
2018-08-22T04:39:09.643Z,6.17
2018-08-22T04:41:38.802Z,5.83
2018-08-22T04:44:08.870Z,5.90
2018-08-22T04:46:38.979Z,5.55
2018-08-22T04:49:09.030Z,5.70
2018-08-22T04:51:39.183Z,6.20
2018-08-22T04:54:09.269Z,6.37
2018-08-22T04:56:40.473Z,5.87
2018-08-22T04:59:10.983Z,6.37
2018-08-22T05:01:40.127Z,6.30
2018-08-22T05:04:09.659Z,5.75
2018-08-22T05:06:39.769Z,6.50
2018-08-22T05:09:10.350Z,5.60
2018-08-22T05:11:39.891Z,5.45
2018-08-22T05:14:10.047Z,6.03
2018-08-22T05:16:41.171Z,5.62
2018-08-22T05:19:11.386Z,6.05
2018-08-22T05:21:40.532Z,5.47
2018-08-22T05:24:10.405Z,5.53
2018-08-22T05:26:39.567Z,6.07
2018-08-22T05:29:08.739Z,5.67
2018-08-22T05:31:37.873Z,6.05
2018-08-22T05:34:07.127Z,5.70
2018-08-22T05:36:36.271Z,5.83
2018-08-22T05:39:10.454Z,5.87
2018-08-22T05:47:49.455Z,5.60
2018-08-22T05:50:18.591Z,5.73
2018-08-22T05:52:47.738Z,6.03
2018-08-22T05:55:16.885Z,5.77
2018-08-22T05:57:46.046Z,6.12
2018-08-22T06:00:15.177Z,6.20
2018-08-22T06:02:44.317Z,6.33
2018-08-22T06:05:13.451Z,5.73
2018-08-22T06:07:42.880Z,5.43
2018-08-22T06:10:12.350Z,6.42
2018-08-22T06:12:42.488Z,6.00
2018-08-22T06:15:12.608Z,6.40
2018-08-22T06:17:42.632Z,6.10
2018-08-22T06:20:12.906Z,5.08
2018-08-22T06:22:42.055Z,5.73
2018-08-22T06:25:11.183Z,5.10
2018-08-22T06:27:40.462Z,5.60
2018-08-22T06:30:10.905Z,5.80
2018-08-22T06:32:40.095Z,5.33
2018-08-22T06:35:09.240Z,5.70
2018-08-22T06:37:38.373Z,6.17
2018-08-22T06:40:07.509Z,5.77
2018-08-22T06:42:36.649Z,6.20
2018-08-22T06:45:07.371Z,6.00
2018-08-22T06:47:36.554Z,5.78
2018-08-22T06:50:05.968Z,6.07
2018-08-22T06:52:35.115Z,6.90
2018-08-22T06:55:04.261Z,6.33
2018-08-22T06:57:33.419Z,6.43
2018-08-22T07:00:02.571Z,6.30
2018-08-22T07:02:31.727Z,6.55
2018-08-22T07:05:00.919Z,6.30
2018-08-22T07:07:30.061Z,6.40
2018-08-22T07:09:59.190Z,5.80
2018-08-22T07:12:28.329Z,5.85
2018-08-22T07:14:57.471Z,5.83
2018-08-22T07:17:26.620Z,5.23
2018-08-22T07:19:55.763Z,5.83
2018-08-22T07:22:24.908Z,5.58
2018-08-22T07:24:54.049Z,5.36
2018-08-22T07:27:23.356Z,5.27
2018-08-22T07:29:52.532Z,6.03
2018-08-22T07:32:23.054Z,5.10
2018-08-22T07:34:52.190Z,5.37
2018-08-22T07:37:22.207Z,5.05
2018-08-22T07:39:52.302Z,4.87
2018-08-22T07:42:22.677Z,5.10
2018-08-22T07:44:52.751Z,5.62
2018-08-22T07:47:22.787Z,5.25
2018-08-22T07:49:52.788Z,5.25
2018-08-22T07:52:22.793Z,5.57
2018-08-22T07:54:52.922Z,4.90
2018-08-22T07:57:24.216Z,5.40
2018-08-22T07:59:53.830Z,5.57
2018-08-22T08:02:23.067Z,5.17
2018-08-22T08:04:53.090Z,5.00
2018-08-22T08:07:23.100Z,5.08
2018-08-22T08:09:52.233Z,4.80
2018-08-22T08:12:25.663Z,5.43
2018-08-22T08:15:00.141Z,5.40
2018-08-22T08:17:29.275Z,5.03
2018-08-22T08:19:58.411Z,5.17
2018-08-22T08:22:27.556Z,5.03
2018-08-22T08:24:56.705Z,5.20
2018-08-22T08:27:25.854Z,5.00
2018-08-22T08:29:54.999Z,5.10
2018-08-22T08:32:24.135Z,4.63
2018-08-22T08:34:53.287Z,5.20
2018-08-22T08:37:22.441Z,5.27
2018-08-22T08:39:51.559Z,4.47
2018-08-22T08:42:20.719Z,5.30
2018-08-22T08:44:50.256Z,4.60
2018-08-22T08:47:20.063Z,5.23
2018-08-22T08:49:49.198Z,5.40
2018-08-22T08:52:18.409Z,5.80
2018-08-22T08:54:47.546Z,5.60
2018-08-22T08:57:17.505Z,5.35
2018-08-22T08:59:47.355Z,4.86
2018-08-22T09:02:18.407Z,5.05
2018-08-22T09:04:47.563Z,4.50
2018-08-22T09:07:18.802Z,4.90
2018-08-22T09:09:48.062Z,5.37
2018-08-22T09:12:18.022Z,5.00
2018-08-22T09:14:47.147Z,4.67
2018-08-22T09:17:16.456Z,4.63
2018-08-22T09:19:45.574Z,5.10
2018-08-22T09:22:14.723Z,5.43
2018-08-22T09:24:43.868Z,4.90
2018-08-22T09:27:12.990Z,5.40
2018-08-22T09:29:42.155Z,5.42
2018-08-22T09:32:11.267Z,5.70
2018-08-22T09:34:40.415Z,5.58
2018-08-22T09:37:09.545Z,5.25
2018-08-22T09:39:38.697Z,5.20
2018-08-22T09:42:07.822Z,6.20
2018-08-22T09:44:36.964Z,5.50
2018-08-22T09:47:06.094Z,5.53
2018-08-22T09:49:35.244Z,5.33
2018-08-22T09:52:04.383Z,5.70
2018-08-22T09:54:44.433Z,5.42
2018-08-22T09:57:13.492Z,5.40
2018-08-22T09:59:42.632Z,5.17
2018-08-22T10:02:11.779Z,6.62
2018-08-22T10:04:40.926Z,5.50
2018-08-22T10:07:10.184Z,5.53
2018-08-22T10:09:39.301Z,5.57
2018-08-22T10:12:08.426Z,5.77
2018-08-22T10:14:37.575Z,5.98
2018-08-22T10:17:06.801Z,5.97
2018-08-22T10:19:36.028Z,5.60
2018-08-22T10:22:05.124Z,4.80
2018-08-22T10:24:35.644Z,5.58
2018-08-22T10:27:04.849Z,5.63
2018-08-22T10:29:34.516Z,5.83
2018-08-22T10:32:03.650Z,5.50
2018-08-22T10:34:34.625Z,5.42
2018-08-22T10:37:03.757Z,5.37
2018-08-22T10:44:37.853Z,5.60
2018-08-22T10:47:06.981Z,5.50
2018-08-22T10:49:36.114Z,6.13
2018-08-22T10:52:05.245Z,5.37
2018-08-22T10:54:34.384Z,5.70
2018-08-22T10:57:04.146Z,5.03
2018-08-22T10:59:34.127Z,5.67
2018-08-22T11:02:04.177Z,5.78
2018-08-22T11:04:33.269Z,5.93
2018-08-22T11:07:02.408Z,5.47
2018-08-22T11:09:31.543Z,6.20
2018-08-22T11:12:00.693Z,5.50
2018-08-22T11:14:29.939Z,5.77
2018-08-22T11:16:59.089Z,6.10
2018-08-22T11:19:28.210Z,5.77
2018-08-22T11:22:14.496Z,5.97
2018-08-22T11:25:00.776Z,5.60
2018-08-22T11:27:46.734Z,6.13
2018-08-22T11:30:33.022Z,6.00
2018-08-22T11:33:19.388Z,5.45
2018-08-22T11:35:47.063Z,5.70
2018-08-22T11:38:16.201Z,5.47
2018-08-22T11:40:45.359Z,6.40
2018-08-22T11:43:14.486Z,5.63
2018-08-22T11:45:43.615Z,6.28
2018-08-22T11:48:12.759Z,5.53
2018-08-22T11:50:41.890Z,5.83
2018-08-22T11:53:11.039Z,5.43
2018-08-22T11:55:40.179Z,5.67
2018-08-22T11:58:09.323Z,5.33
2018-08-22T12:00:38.458Z,5.60
2018-08-22T12:03:07.599Z,5.80
2018-08-22T12:05:36.730Z,5.70
2018-08-22T12:08:05.881Z,5.80
2018-08-22T12:10:35.030Z,5.77
2018-08-22T12:13:05.094Z,6.00
2018-08-22T12:15:35.207Z,5.70
2018-08-22T12:18:04.342Z,5.60
2018-08-22T12:20:33.482Z,6.10
2018-08-22T12:23:02.725Z,5.80
2018-08-22T12:25:31.860Z,5.70
2018-08-22T12:28:01.010Z,5.42
2018-08-22T12:30:30.143Z,5.77
2018-08-22T12:32:59.295Z,5.57
2018-08-22T12:35:28.443Z,5.20
2018-08-22T12:37:57.587Z,5.20
2018-08-22T12:40:26.741Z,5.72
2018-08-22T12:42:55.871Z,5.87
2018-08-22T12:45:25.047Z,5.22
2018-08-22T12:47:54.384Z,6.05
2018-08-22T12:50:23.691Z,6.00
2018-08-22T12:52:52.743Z,5.40
2018-08-22T12:55:21.882Z,5.53
2018-08-22T12:57:51.037Z,6.20
2018-08-22T13:00:20.163Z,5.87
2018-08-22T13:02:49.311Z,5.33
2018-08-22T13:05:18.526Z,5.77
2018-08-22T13:07:48.530Z,5.90
2018-08-22T13:10:18.475Z,5.50
2018-08-22T13:12:48.566Z,5.50
2018-08-22T13:15:18.583Z,5.22
2018-08-22T13:17:48.592Z,5.80
2018-08-22T13:20:18.705Z,5.50
2018-08-22T13:22:48.719Z,5.55
2018-08-22T13:25:18.868Z,5.65
2018-08-22T13:27:48.854Z,6.62
2018-08-22T13:30:18.958Z,5.80
2018-08-22T13:32:48.963Z,5.90
2018-08-22T13:35:19.967Z,5.78
2018-08-22T13:37:49.121Z,5.73
2018-08-22T13:40:19.048Z,6.20
2018-08-22T13:42:49.069Z,5.42
2018-08-22T13:45:19.079Z,5.70
2018-08-22T13:47:50.207Z,6.00
2018-08-22T13:50:19.333Z,6.23
2018-08-22T13:52:49.240Z,5.58
2018-08-22T13:55:19.346Z,5.95
2018-08-22T13:57:49.383Z,5.55
2018-08-22T14:00:19.382Z,5.42
2018-08-22T14:02:49.406Z,5.60
2018-08-22T14:05:19.455Z,5.85
2018-08-22T14:07:49.547Z,5.92
2018-08-22T14:10:19.580Z,5.62
2018-08-22T14:12:49.583Z,5.30
2018-08-22T14:15:19.633Z,5.40
2018-08-22T14:17:49.718Z,5.75
2018-08-22T14:20:18.867Z,6.13
2018-08-22T14:22:48.017Z,5.50
2018-08-22T14:25:17.138Z,5.20
2018-08-22T14:27:46.275Z,5.30
2018-08-22T14:30:15.546Z,5.53
2018-08-22T14:32:44.680Z,5.50
2018-08-22T14:35:13.823Z,5.70
2018-08-22T14:37:42.963Z,5.50
2018-08-22T14:40:12.106Z,5.83
2018-08-22T14:42:41.234Z,5.62
2018-08-22T14:45:10.458Z,5.70
2018-08-22T14:47:39.663Z,5.90
2018-08-22T14:50:08.887Z,6.10
2018-08-22T14:52:38.334Z,6.53
2018-08-22T14:55:07.577Z,5.83
2018-08-22T14:57:36.710Z,5.70
2018-08-22T15:00:06.342Z,5.33
2018-08-22T15:02:35.673Z,5.60
2018-08-22T15:05:04.781Z,5.30
2018-08-22T15:07:33.940Z,5.05
2018-08-22T15:10:03.094Z,5.25
2018-08-22T15:12:32.242Z,5.20
2018-08-22T15:15:01.374Z,5.10
2018-08-22T15:17:30.511Z,5.60
2018-08-22T15:19:59.647Z,5.28
2018-08-22T15:22:28.792Z,5.27
2018-08-22T15:24:57.918Z,5.57
2018-08-22T15:27:27.066Z,5.60
2018-08-22T15:29:56.200Z,5.50
2018-08-22T15:32:25.817Z,5.20
2018-08-22T15:34:56.139Z,4.87
2018-08-22T15:37:25.859Z,5.07
2018-08-22T15:39:54.995Z,5.03
2018-08-22T15:42:24.135Z,5.10
2018-08-22T15:44:53.275Z,4.90
2018-08-22T15:47:22.486Z,5.17
2018-08-22T15:49:51.546Z,4.65
2018-08-22T15:52:20.700Z,5.30
2018-08-22T15:55:10.899Z,5.70
2018-08-22T15:57:57.634Z,4.97
2018-08-22T16:00:44.234Z,5.13
2018-08-22T16:03:13.373Z,4.97
2018-08-22T16:05:43.445Z,5.28
2018-08-22T16:08:13.069Z,5.28
2018-08-22T16:10:42.200Z,4.83
2018-08-22T16:13:17.677Z,4.90
2018-08-22T16:15:48.643Z,5.83
2018-08-22T16:18:18.865Z,5.30
2018-08-22T16:20:56.247Z,5.08
2018-08-22T16:23:28.551Z,4.70
2018-08-22T16:25:58.944Z,5.20
2018-08-22T16:28:34.348Z,5.70
2018-08-22T16:31:03.481Z,5.40
2018-08-22T16:33:32.632Z,4.97
2018-08-22T16:36:01.754Z,5.47
2018-08-22T16:38:30.903Z,5.07
2018-08-22T16:41:00.108Z,5.37
2018-08-22T16:43:41.153Z,5.40
2018-08-22T16:46:12.342Z,5.47
2018-08-22T16:48:42.626Z,5.57
2018-08-22T16:51:11.820Z,5.15
2018-08-22T16:53:40.949Z,5.28
2018-08-22T16:56:10.088Z,5.57
2018-08-22T16:58:39.230Z,5.90
2018-08-22T17:01:08.358Z,5.47
2018-08-22T17:03:37.506Z,5.20
2018-08-22T17:06:11.922Z,5.70
2018-08-22T17:08:41.149Z,5.50
2018-08-22T17:11:11.437Z,5.43
2018-08-22T17:13:45.626Z,5.33
2018-08-22T17:16:14.858Z,5.47
2018-08-22T17:18:44.014Z,5.12
2018-08-22T17:21:13.179Z,5.70
2018-08-22T17:23:42.655Z,5.12
2018-08-22T17:26:19.376Z,5.90
2018-08-22T17:28:53.857Z,5.60
2018-08-22T17:31:24.073Z,6.03
2018-08-22T17:33:55.226Z,5.77
2018-08-22T17:36:24.523Z,5.90
2018-08-22T17:38:55.375Z,5.80
2018-08-22T17:41:26.338Z,5.50
2018-08-22T17:44:12.394Z,6.10
2018-08-22T17:46:48.651Z,5.47
2018-08-22T17:49:17.958Z,5.80
2018-08-22T17:51:58.629Z,5.50
2018-08-22T17:54:28.027Z,5.57
2018-08-22T17:57:15.453Z,6.05
2018-08-22T17:59:45.058Z,6.15
2018-08-22T18:02:15.320Z,5.90
2018-08-22T18:05:02.203Z,5.95
2018-08-22T18:07:31.397Z,5.58
2018-08-22T18:10:02.030Z,6.20
2018-08-22T18:12:31.175Z,7.03
2018-08-22T18:15:02.257Z,7.53
2018-08-22T18:17:31.478Z,6.90
2018-08-22T18:20:00.967Z,6.00
2018-08-22T18:22:33.631Z,6.30
2018-08-22T18:25:02.782Z,6.17
2018-08-22T18:27:32.020Z,5.93
2018-08-22T18:30:01.063Z,6.07
2018-08-22T18:32:30.210Z,6.25
2018-08-22T18:35:06.023Z,18.90
2018-08-22T18:37:35.119Z,15.37
2018-08-22T18:40:21.788Z,14.83
2018-08-22T18:42:54.755Z,14.67
2018-08-22T18:45:24.594Z,27.17
2018-08-22T18:47:53.768Z,14.53
2018-08-22T18:50:22.914Z,8.23
2018-08-22T18:52:55.082Z,7.30
2018-08-22T18:55:26.538Z,7.90
2018-08-22T18:57:56.435Z,6.23
2018-08-22T19:00:25.677Z,5.92
2018-08-22T19:02:58.705Z,5.80
2018-08-22T19:05:30.649Z,5.53
2018-08-22T19:08:09.901Z,6.17
2018-08-22T19:10:40.221Z,5.80
2018-08-22T19:13:14.516Z,5.97
2018-08-22T19:15:47.038Z,5.70
2018-08-22T19:18:16.223Z,6.20
2018-08-22T19:20:45.403Z,6.37
2018-08-22T19:23:14.571Z,5.93
2018-08-22T19:25:46.706Z,5.77
2018-08-22T19:28:15.873Z,6.23
2018-08-22T19:30:45.009Z,6.60
2018-08-22T19:33:15.591Z,6.27
2018-08-22T19:35:45.357Z,6.00
2018-08-22T19:38:18.550Z,5.87
2018-08-22T19:40:47.717Z,6.87
2018-08-22T19:43:16.877Z,6.22
2018-08-22T19:45:46.057Z,6.10
2018-08-22T19:48:15.240Z,6.70
2018-08-22T19:50:44.395Z,6.43
2018-08-22T19:53:14.246Z,6.03
2018-08-22T19:55:44.371Z,6.47
2018-08-22T19:58:19.978Z,6.50
2018-08-22T20:00:49.450Z,5.97
2018-08-22T20:03:22.667Z,6.50
2018-08-22T20:05:53.143Z,6.30
2018-08-22T20:08:27.645Z,6.80
2018-08-22T20:10:57.749Z,6.17
2018-08-22T20:13:41.436Z,6.27
2018-08-22T20:16:10.587Z,6.43
2018-08-22T20:18:39.719Z,6.20
2018-08-22T20:21:15.856Z,6.80
2018-08-22T20:23:45.540Z,6.73
2018-08-22T20:26:14.751Z,7.03
2018-08-22T20:28:47.971Z,7.63
2018-08-22T20:31:17.101Z,6.37
2018-08-22T20:34:06.460Z,6.90
2018-08-22T20:36:35.657Z,6.37
2018-08-22T20:39:10.027Z,6.83
2018-08-22T20:41:39.722Z,6.63
2018-08-22T20:44:18.140Z,6.80
2018-08-22T20:46:48.479Z,6.90
2018-08-22T20:49:20.055Z,6.90
2018-08-22T20:51:49.417Z,7.07
2018-08-22T20:54:23.633Z,6.70
2018-08-22T20:56:58.161Z,6.73
2018-08-22T20:59:27.359Z,7.20
2018-08-22T21:02:01.793Z,7.47
2018-08-22T21:04:30.918Z,6.80
2018-08-22T21:07:01.073Z,7.97
2018-08-22T21:09:30.210Z,6.73
2018-08-22T21:12:00.000Z,7.37
2018-08-22T21:14:30.441Z,7.30
2018-08-22T21:16:59.611Z,7.37
2018-08-22T21:19:28.759Z,7.73
2018-08-22T21:21:57.889Z,8.20
2018-08-22T21:24:27.065Z,7.23
2018-08-22T21:26:56.371Z,7.90
2018-08-22T21:29:26.481Z,7.37
2018-08-22T21:31:55.618Z,7.17
2018-08-22T21:34:24.749Z,6.93
2018-08-22T21:36:53.904Z,7.27
2018-08-22T21:39:24.450Z,7.23
2018-08-22T21:41:53.797Z,7.03
2018-08-22T21:44:23.665Z,7.50
2018-08-22T21:47:00.967Z,7.03
2018-08-22T21:49:30.389Z,7.70
2018-08-22T21:52:01.111Z,7.83
2018-08-22T21:54:30.313Z,8.13
2018-08-22T21:56:59.483Z,7.50
2018-08-22T21:59:28.635Z,7.10
2018-08-22T22:02:03.027Z,7.63
2018-08-22T22:04:34.359Z,7.20
2018-08-22T22:07:04.695Z,7.07
2018-08-22T22:09:34.394Z,7.73
2018-08-22T22:12:04.109Z,7.53
2018-08-22T22:14:34.418Z,7.53
2018-08-22T22:17:04.341Z,7.03
2018-08-22T22:19:36.413Z,8.33
2018-08-22T22:22:05.619Z,7.43
2018-08-22T22:24:43.739Z,7.80
2018-08-22T22:27:13.327Z,7.50
2018-08-22T22:29:42.460Z,7.65
2018-08-22T22:32:13.827Z,8.00
2018-08-22T22:34:42.964Z,7.60
2018-08-22T22:37:12.106Z,7.70
2018-08-22T22:39:43.942Z,8.00
2018-08-22T22:42:18.681Z,7.62
2018-08-22T22:44:49.754Z,8.45
2018-08-22T22:47:24.302Z,7.40
2018-08-22T22:49:53.454Z,8.00
2018-08-22T22:52:43.808Z,8.23
2018-08-22T22:55:13.314Z,7.95
2018-08-22T22:57:43.729Z,8.27
2018-08-22T23:00:14.275Z,8.03
2018-08-22T23:02:44.523Z,7.65
2018-08-22T23:05:13.681Z,7.40
2018-08-22T23:07:43.495Z,8.00
2018-08-22T23:10:13.628Z,8.00
2018-08-22T23:12:45.978Z,7.60
2018-08-22T23:15:18.539Z,7.80
2018-08-22T23:17:52.219Z,8.48
2018-08-22T23:20:41.999Z,7.43
2018-08-22T23:23:30.410Z,7.33
2018-08-22T23:26:13.106Z,7.60
2018-08-22T23:28:43.339Z,7.60
2018-08-22T23:31:14.629Z,7.80
2018-08-22T23:33:43.779Z,8.07
2018-08-22T23:36:12.981Z,8.27
2018-08-22T23:38:42.161Z,8.00
2018-08-22T23:41:11.471Z,7.67
2018-08-22T23:43:55.927Z,7.53
2018-08-22T23:46:25.073Z,8.93
2018-08-22T23:48:57.825Z,8.07
2018-08-22T23:51:26.967Z,7.83
2018-08-22T23:53:59.276Z,7.47
2018-08-22T23:56:29.512Z,7.63
2018-08-22T23:58:59.026Z,7.80
